sensor_id;sensor_type;location;lat;lon;timestamp;pressure;altitude;pressure_sealevel;temperature;humidity
60874;BME280;46715;40.642;-7.920;2023-07-28T00:01:47;96324.94;;;14.66;100.00
60874;BME280;46715;40.642;-7.920;2023-07-28T00:03:48;96327.84;;;14.64;100.00
60874;BME280;46715;40.642;-7.920;2023-07-28T00:05:49;96321.09;;;14.58;100.00
60874;BME280;46715;40.642;-7.920;2023-07-28T00:07:49;96331.66;;;14.53;100.00
60874;BME280;46715;40.642;-7.920;2023-07-28T00:09:50;96320.31;;;14.44;100.00
60874;BME280;46715;40.642;-7.920;2023-07-28T00:11:51;96327.28;;;14.35;100.00
60874;BME280;46715;40.642;-7.920;2023-07-28T00:13:51;96325.13;;;14.37;100.00
60874;BME280;46715;40.642;-7.920;2023-07-28T00:15:52;96328.84;;;14.36;100.00
60874;BME280;46715;40.642;-7.920;2023-07-28T00:17:52;96322.91;;;14.30;100.00
60874;BME280;46715;40.642;-7.920;2023-07-28T00:19:53;96313.84;;;14.22;100.00
60874;BME280;46715;40.642;-7.920;2023-07-28T00:21:54;96315.00;;;14.16;100.00
60874;BME280;46715;40.642;-7.920;2023-07-28T00:23:56;96323.25;;;14.09;100.00
60874;BME280;46715;40.642;-7.920;2023-07-28T00:25:57;96316.03;;;14.01;100.00
60874;BME280;46715;40.642;-7.920;2023-07-28T00:27:57;96313.72;;;14.00;100.00
60874;BME280;46715;40.642;-7.920;2023-07-28T00:29:58;96325.75;;;14.01;100.00
60874;BME280;46715;40.642;-7.920;2023-07-28T00:31:59;96316.03;;;14.01;100.00
60874;BME280;46715;40.642;-7.920;2023-07-28T00:34:01;96322.91;;;13.97;100.00
60874;BME280;46715;40.642;-7.920;2023-07-28T00:36:04;96308.06;;;13.92;100.00
60874;BME280;46715;40.642;-7.920;2023-07-28T00:38:06;96307.25;;;13.92;100.00
60874;BME280;46715;40.642;-7.920;2023-07-28T00:40:07;96310.69;;;13.92;100.00
60874;BME280;46715;40.642;-7.920;2023-07-28T00:42:08;96303.38;;;13.89;100.00
60874;BME280;46715;40.642;-7.920;2023-07-28T00:44:10;96304.16;;;13.90;100.00
60874;BME280;46715;40.642;-7.920;2023-07-28T00:46:13;96304.25;;;13.85;100.00
60874;BME280;46715;40.642;-7.920;2023-07-28T00:48:16;96297.03;;;13.76;100.00
60874;BME280;46715;40.642;-7.920;2023-07-28T00:50:17;96303.41;;;13.70;100.00
60874;BME280;46715;40.642;-7.920;2023-07-28T00:52:18;96295.34;;;13.67;100.00
60874;BME280;46715;40.642;-7.920;2023-07-28T00:54:23;96290.16;;;13.61;100.00
60874;BME280;46715;40.642;-7.920;2023-07-28T00:56:24;96296.28;;;13.57;100.00
60874;BME280;46715;40.642;-7.920;2023-07-28T00:58:25;96293.16;;;13.55;100.00
60874;BME280;46715;40.642;-7.920;2023-07-28T01:00:26;96295.00;;;13.54;100.00
60874;BME280;46715;40.642;-7.920;2023-07-28T01:02:27;96283.25;;;13.52;100.00
60874;BME280;46715;40.642;-7.920;2023-07-28T01:04:28;96280.34;;;13.53;100.00
60874;BME280;46715;40.642;-7.920;2023-07-28T01:06:50;96286.28;;;13.59;100.00
60874;BME280;46715;40.642;-7.920;2023-07-28T01:09:06;96277.06;;;13.61;100.00
60874;BME280;46715;40.642;-7.920;2023-07-28T01:11:10;96280.19;;;13.63;100.00
60874;BME280;46715;40.642;-7.920;2023-07-28T01:13:10;96275.16;;;13.67;100.00
60874;BME280;46715;40.642;-7.920;2023-07-28T01:15:11;96276.72;;;13.68;100.00
60874;BME280;46715;40.642;-7.920;2023-07-28T01:17:12;96275.66;;;13.69;100.00
60874;BME280;46715;40.642;-7.920;2023-07-28T01:19:16;96270.41;;;13.69;100.00
60874;BME280;46715;40.642;-7.920;2023-07-28T01:21:26;96276.41;;;13.70;100.00
60874;BME280;46715;40.642;-7.920;2023-07-28T01:23:44;96275.66;;;13.69;100.00
60874;BME280;46715;40.642;-7.920;2023-07-28T01:26:11;96273.31;;;13.68;100.00
60874;BME280;46715;40.642;-7.920;2023-07-28T01:28:13;96273.91;;;13.64;100.00
60874;BME280;46715;40.642;-7.920;2023-07-28T01:30:14;96275.25;;;13.62;100.00
60874;BME280;46715;40.642;-7.920;2023-07-28T01:32:15;96279.50;;;13.58;100.00
60874;BME280;46715;40.642;-7.920;2023-07-28T01:34:16;96279.28;;;13.54;100.00
60874;BME280;46715;40.642;-7.920;2023-07-28T01:36:16;96276.72;;;13.49;100.00
60874;BME280;46715;40.642;-7.920;2023-07-28T01:38:17;96268.69;;;13.45;100.00
60874;BME280;46715;40.642;-7.920;2023-07-28T01:40:18;96272.94;;;13.41;100.00
60874;BME280;46715;40.642;-7.920;2023-07-28T01:42:19;96268.69;;;13.45;100.00
60874;BME280;46715;40.642;-7.920;2023-07-28T01:44:19;96277.81;;;13.48;100.00
60874;BME280;46715;40.642;-7.920;2023-07-28T01:46:21;96265.25;;;13.45;100.00
60874;BME280;46715;40.642;-7.920;2023-07-28T01:48:22;96267.41;;;13.43;100.00
60874;BME280;46715;40.642;-7.920;2023-07-28T01:50:23;96262.78;;;13.35;100.00
60874;BME280;46715;40.642;-7.920;2023-07-28T01:52:23;96270.69;;;13.29;100.00
60874;BME280;46715;40.642;-7.920;2023-07-28T01:54:24;96263.75;;;13.20;100.00
60874;BME280;46715;40.642;-7.920;2023-07-28T01:56:24;96266.25;;;13.11;100.00
60874;BME280;46715;40.642;-7.920;2023-07-28T01:58:25;96270.13;;;13.13;100.00
60874;BME280;46715;40.642;-7.920;2023-07-28T02:00:26;96276.56;;;13.21;100.00
60874;BME280;46715;40.642;-7.920;2023-07-28T02:02:27;96263.81;;;13.34;100.00
60874;BME280;46715;40.642;-7.920;2023-07-28T02:04:29;96269.25;;;13.42;100.00
60874;BME280;46715;40.642;-7.920;2023-07-28T02:06:29;96264.38;;;13.36;100.00
60874;BME280;46715;40.642;-7.920;2023-07-28T02:08:31;96264.19;;;13.27;100.00
60874;BME280;46715;40.642;-7.920;2023-07-28T02:10:32;96268.44;;;13.23;100.00
60874;BME280;46715;40.642;-7.920;2023-07-28T02:12:32;96272.19;;;13.17;100.00
60874;BME280;46715;40.642;-7.920;2023-07-28T02:14:33;96267.59;;;13.08;100.00
60874;BME280;46715;40.642;-7.920;2023-07-28T02:16:34;96266.31;;;13.06;100.00
60874;BME280;46715;40.642;-7.920;2023-07-28T02:18:35;96263.50;;;13.02;100.00
60874;BME280;46715;40.642;-7.920;2023-07-28T02:20:35;96253.66;;;12.94;100.00
60874;BME280;46715;40.642;-7.920;2023-07-28T02:22:36;96259.41;;;12.91;100.00
60874;BME280;46715;40.642;-7.920;2023-07-28T02:24:37;96259.88;;;12.98;100.00
60874;BME280;46715;40.642;-7.920;2023-07-28T02:26:38;96259.03;;;13.03;100.00
60874;BME280;46715;40.642;-7.920;2023-07-28T02:28:38;96256.69;;;13.01;100.00
60874;BME280;46715;40.642;-7.920;2023-07-28T02:30:39;96258.31;;;12.97;100.00
60874;BME280;46715;40.642;-7.920;2023-07-28T02:32:40;96248.94;;;12.91;100.00
60874;BME280;46715;40.642;-7.920;2023-07-28T02:34:41;96241.19;;;12.86;100.00
60874;BME280;46715;40.642;-7.920;2023-07-28T02:36:42;96230.56;;;12.77;100.00
60874;BME280;46715;40.642;-7.920;2023-07-28T02:38:42;96241.59;;;12.74;100.00
60874;BME280;46715;40.642;-7.920;2023-07-28T02:40:43;96238.19;;;12.73;100.00
60874;BME280;46715;40.642;-7.920;2023-07-28T02:42:44;96240.25;;;12.76;100.00
60874;BME280;46715;40.642;-7.920;2023-07-28T02:44:44;96236.00;;;12.81;100.00
60874;BME280;46715;40.642;-7.920;2023-07-28T02:46:45;96226.06;;;12.83;100.00
60874;BME280;46715;40.642;-7.920;2023-07-28T02:48:46;96236.44;;;12.88;100.00
60874;BME280;46715;40.642;-7.920;2023-07-28T02:50:47;96234.06;;;12.91;100.00
60874;BME280;46715;40.642;-7.920;2023-07-28T02:52:48;96234.53;;;12.93;100.00
60874;BME280;46715;40.642;-7.920;2023-07-28T02:54:49;96222.53;;;12.92;100.00
60874;BME280;46715;40.642;-7.920;2023-07-28T02:56:51;96221.25;;;12.90;100.00
60874;BME280;46715;40.642;-7.920;2023-07-28T02:58:52;96215.50;;;12.88;100.00
60874;BME280;46715;40.642;-7.920;2023-07-28T03:00:52;96216.78;;;12.90;100.00
60874;BME280;46715;40.642;-7.920;2023-07-28T03:03:00;96226.41;;;12.95;100.00
60874;BME280;46715;40.642;-7.920;2023-07-28T03:05:00;96232.56;;;13.04;100.00
60874;BME280;46715;40.642;-7.920;2023-07-28T03:07:21;96238.31;;;13.06;100.00
60874;BME280;46715;40.642;-7.920;2023-07-28T03:09:28;96235.03;;;12.95;100.00
60874;BME280;46715;40.642;-7.920;2023-07-28T03:11:36;96229.66;;;12.87;100.00
60874;BME280;46715;40.642;-7.920;2023-07-28T03:13:37;96231.63;;;12.76;100.00
60874;BME280;46715;40.642;-7.920;2023-07-28T03:15:38;96233.81;;;12.69;100.00
60874;BME280;46715;40.642;-7.920;2023-07-28T03:17:40;96225.75;;;12.65;100.00
60874;BME280;46715;40.642;-7.920;2023-07-28T03:19:40;96238.53;;;12.67;100.00
60874;BME280;46715;40.642;-7.920;2023-07-28T03:21:41;96243.78;;;12.67;100.00
60874;BME280;46715;40.642;-7.920;2023-07-28T03:23:42;96232.81;;;12.65;100.00
60874;BME280;46715;40.642;-7.920;2023-07-28T03:25:42;96240.44;;;12.61;100.00
60874;BME280;46715;40.642;-7.920;2023-07-28T03:27:43;96237.59;;;12.57;100.00
60874;BME280;46715;40.642;-7.920;2023-07-28T03:29:44;96243.63;;;12.58;100.00
60874;BME280;46715;40.642;-7.920;2023-07-28T03:31:46;96231.03;;;12.60;100.00
60874;BME280;46715;40.642;-7.920;2023-07-28T03:33:46;96228.69;;;12.58;100.00
60874;BME280;46715;40.642;-7.920;2023-07-28T03:35:47;96232.06;;;12.59;100.00
60874;BME280;46715;40.642;-7.920;2023-07-28T03:37:48;96227.94;;;12.58;100.00
60874;BME280;46715;40.642;-7.920;2023-07-28T03:39:49;96229.25;;;12.55;100.00
60874;BME280;46715;40.642;-7.920;2023-07-28T03:41:49;96224.59;;;12.52;100.00
60874;BME280;46715;40.642;-7.920;2023-07-28T03:43:50;96225.13;;;12.49;100.00
60874;BME280;46715;40.642;-7.920;2023-07-28T03:45:51;96228.38;;;12.41;100.00
60874;BME280;46715;40.642;-7.920;2023-07-28T03:47:52;96224.69;;;12.42;100.00
60874;BME280;46715;40.642;-7.920;2023-07-28T03:49:52;96225.69;;;12.46;100.00
60874;BME280;46715;40.642;-7.920;2023-07-28T03:51:53;96223.09;;;12.46;100.00
60874;BME280;46715;40.642;-7.920;2023-07-28T03:53:54;96220.25;;;12.42;100.00
60874;BME280;46715;40.642;-7.920;2023-07-28T03:55:55;96216.56;;;12.43;100.00
60874;BME280;46715;40.642;-7.920;2023-07-28T03:57:58;96218.41;;;12.43;100.00
60874;BME280;46715;40.642;-7.920;2023-07-28T04:00:00;96221.31;;;12.41;100.00
60874;BME280;46715;40.642;-7.920;2023-07-28T04:02:00;96224.38;;;12.49;100.00
60874;BME280;46715;40.642;-7.920;2023-07-28T04:04:01;96217.81;;;12.51;100.00
60874;BME280;46715;40.642;-7.920;2023-07-28T04:06:11;96214.41;;;12.51;100.00
60874;BME280;46715;40.642;-7.920;2023-07-28T04:08:12;96219.50;;;12.61;100.00
60874;BME280;46715;40.642;-7.920;2023-07-28T04:10:13;96228.66;;;12.64;100.00
60874;BME280;46715;40.642;-7.920;2023-07-28T04:12:14;96223.47;;;12.58;100.00
60874;BME280;46715;40.642;-7.920;2023-07-28T04:14:15;96225.84;;;12.55;100.00
60874;BME280;46715;40.642;-7.920;2023-07-28T04:16:16;96225.38;;;12.53;100.00
60874;BME280;46715;40.642;-7.920;2023-07-28T04:18:18;96218.56;;;12.52;100.00
60874;BME280;46715;40.642;-7.920;2023-07-28T04:20:19;96216.25;;;12.50;100.00
60874;BME280;46715;40.642;-7.920;2023-07-28T04:22:19;96221.25;;;12.47;100.00
60874;BME280;46715;40.642;-7.920;2023-07-28T04:24:23;96216.81;;;12.47;100.00
60874;BME280;46715;40.642;-7.920;2023-07-28T04:26:25;96222.25;;;12.51;100.00
60874;BME280;46715;40.642;-7.920;2023-07-28T04:28:32;96218.56;;;12.52;100.00
60874;BME280;46715;40.642;-7.920;2023-07-28T04:30:35;96221.19;;;12.52;100.00
60874;BME280;46715;40.642;-7.920;2023-07-28T04:32:36;96220.75;;;12.44;100.00
60874;BME280;46715;40.642;-7.920;2023-07-28T04:34:44;96204.06;;;12.40;100.00
60874;BME280;46715;40.642;-7.920;2023-07-28T04:36:50;96208.00;;;12.38;100.00
60874;BME280;46715;40.642;-7.920;2023-07-28T04:38:55;96214.81;;;12.39;100.00
60874;BME280;46715;40.642;-7.920;2023-07-28T04:40:58;96227.31;;;12.42;100.00
60874;BME280;46715;40.642;-7.920;2023-07-28T04:43:16;96230.66;;;12.48;100.00
60874;BME280;46715;40.642;-7.920;2023-07-28T04:45:23;96230.38;;;12.49;100.00
60874;BME280;46715;40.642;-7.920;2023-07-28T04:47:24;96226.50;;;12.47;100.00
60874;BME280;46715;40.642;-7.920;2023-07-28T04:49:25;96230.16;;;12.45;100.00
60874;BME280;46715;40.642;-7.920;2023-07-28T04:51:40;96224.59;;;12.52;100.00
60874;BME280;46715;40.642;-7.920;2023-07-28T04:54:10;96232.06;;;12.59;100.00
60874;BME280;46715;40.642;-7.920;2023-07-28T04:56:11;96241.81;;;12.53;100.00
60874;BME280;46715;40.642;-7.920;2023-07-28T04:58:12;96233.88;;;12.39;100.00
60874;BME280;46715;40.642;-7.920;2023-07-28T05:00:23;96230.06;;;12.32;100.00
60874;BME280;46715;40.642;-7.920;2023-07-28T05:02:23;96224.09;;;12.26;100.00
60874;BME280;46715;40.642;-7.920;2023-07-28T05:04:24;96233.03;;;12.20;100.00
60874;BME280;46715;40.642;-7.920;2023-07-28T05:06:25;96235.94;;;12.18;100.00
60874;BME280;46715;40.642;-7.920;2023-07-28T05:08:26;96228.09;;;12.18;100.00
60874;BME280;46715;40.642;-7.920;2023-07-28T05:10:27;96234.13;;;12.19;100.00
60874;BME280;46715;40.642;-7.920;2023-07-28T05:12:28;96234.13;;;12.19;100.00
60874;BME280;46715;40.642;-7.920;2023-07-28T05:14:29;96233.03;;;12.20;100.00
60874;BME280;46715;40.642;-7.920;2023-07-28T05:16:29;96235.88;;;12.23;100.00
60874;BME280;46715;40.642;-7.920;2023-07-28T05:18:45;96239.78;;;12.26;100.00
60874;BME280;46715;40.642;-7.920;2023-07-28T05:21:06;96234.28;;;12.27;100.00
60874;BME280;46715;40.642;-7.920;2023-07-28T05:23:07;96236.63;;;12.29;100.00
60874;BME280;46715;40.642;-7.920;2023-07-28T05:25:07;96236.84;;;12.33;100.00
60874;BME280;46715;40.642;-7.920;2023-07-28T05:27:11;96234.22;;;12.33;100.00
60874;BME280;46715;40.642;-7.920;2023-07-28T05:29:13;96239.72;;;12.31;100.00
60874;BME280;46715;40.642;-7.920;2023-07-28T05:31:14;96237.09;;;12.31;100.00
60874;BME280;46715;40.642;-7.920;2023-07-28T05:33:16;96239.47;;;12.33;100.00
60874;BME280;46715;40.642;-7.920;2023-07-28T05:35:21;96237.63;;;12.33;100.00
60874;BME280;46715;40.642;-7.920;2023-07-28T05:37:21;96233.22;;;12.28;100.00
60874;BME280;46715;40.642;-7.920;2023-07-28T05:39:22;96232.72;;;12.26;100.00
60874;BME280;46715;40.642;-7.920;2023-07-28T05:41:22;96235.59;;;12.25;100.00
60874;BME280;46715;40.642;-7.920;2023-07-28T05:43:24;96236.91;;;12.27;100.00
60874;BME280;46715;40.642;-7.920;2023-07-28T05:45:28;96238.47;;;12.28;100.00
60874;BME280;46715;40.642;-7.920;2023-07-28T05:47:28;96250.41;;;12.35;100.00
60874;BME280;46715;40.642;-7.920;2023-07-28T05:49:30;96251.41;;;12.39;100.00
60874;BME280;46715;40.642;-7.920;2023-07-28T05:51:31;96254.50;;;12.41;100.00
60874;BME280;46715;40.642;-7.920;2023-07-28T05:53:31;96251.84;;;12.46;100.00
60874;BME280;46715;40.642;-7.920;2023-07-28T05:55:39;96255.75;;;12.49;100.00
60874;BME280;46715;40.642;-7.920;2023-07-28T05:57:40;96252.09;;;12.50;100.00
60874;BME280;46715;40.642;-7.920;2023-07-28T05:59:43;96262.59;;;12.44;100.00
60874;BME280;46715;40.642;-7.920;2023-07-28T06:01:44;96259.75;;;12.41;100.00
60874;BME280;46715;40.642;-7.920;2023-07-28T06:03:54;96259.41;;;12.48;100.00
60874;BME280;46715;40.642;-7.920;2023-07-28T06:06:00;96263.75;;;12.57;100.00
60874;BME280;46715;40.642;-7.920;2023-07-28T06:08:00;96270.94;;;12.71;100.00
60874;BME280;46715;40.642;-7.920;2023-07-28T06:10:01;96269.41;;;12.89;100.00
60874;BME280;46715;40.642;-7.920;2023-07-28T06:12:02;96277.00;;;13.09;100.00
60874;BME280;46715;40.642;-7.920;2023-07-28T06:14:02;96285.63;;;13.29;100.00
60874;BME280;46715;40.642;-7.920;2023-07-28T06:16:10;96280.03;;;13.55;100.00
60874;BME280;46715;40.642;-7.920;2023-07-28T06:18:10;96288.53;;;13.66;100.00
60874;BME280;46715;40.642;-7.920;2023-07-28T06:20:11;96289.16;;;13.76;100.00
60874;BME280;46715;40.642;-7.920;2023-07-28T06:22:12;96281.34;;;13.90;100.00
60874;BME280;46715;40.642;-7.920;2023-07-28T06:24:18;96279.81;;;14.03;100.00
60874;BME280;46715;40.642;-7.920;2023-07-28T06:26:19;96291.19;;;14.12;100.00
60874;BME280;46715;40.642;-7.920;2023-07-28T06:28:20;96289.84;;;14.15;100.00
60874;BME280;46715;40.642;-7.920;2023-07-28T06:30:21;96291.00;;;14.23;100.00
60874;BME280;46715;40.642;-7.920;2023-07-28T06:32:21;96286.97;;;14.30;100.00
60874;BME280;46715;40.642;-7.920;2023-07-28T06:34:24;96290.34;;;14.45;100.00
60874;BME280;46715;40.642;-7.920;2023-07-28T06:36:24;96289.72;;;14.67;100.00
60874;BME280;46715;40.642;-7.920;2023-07-28T06:38:25;96291.91;;;15.15;100.00
60874;BME280;46715;40.642;-7.920;2023-07-28T06:40:26;96294.06;;;15.73;100.00
60874;BME280;46715;40.642;-7.920;2023-07-28T06:42:27;96289.63;;;16.05;100.00
60874;BME280;46715;40.642;-7.920;2023-07-28T06:44:31;96303.00;;;16.17;100.00
60874;BME280;46715;40.642;-7.920;2023-07-28T06:46:31;96298.13;;;16.24;100.00
60874;BME280;46715;40.642;-7.920;2023-07-28T06:48:33;96300.25;;;16.22;100.00
60874;BME280;46715;40.642;-7.920;2023-07-28T06:50:34;96304.75;;;16.22;100.00
60874;BME280;46715;40.642;-7.920;2023-07-28T06:52:35;96313.06;;;16.15;100.00
60874;BME280;46715;40.642;-7.920;2023-07-28T06:54:36;96312.16;;;16.19;100.00
60874;BME280;46715;40.642;-7.920;2023-07-28T06:56:37;96304.78;;;16.30;100.00
60874;BME280;46715;40.642;-7.920;2023-07-28T06:58:38;96304.06;;;16.39;100.00
60874;BME280;46715;40.642;-7.920;2023-07-28T07:00:38;96310.88;;;16.40;100.00
60874;BME280;46715;40.642;-7.920;2023-07-28T07:02:40;96306.25;;;16.45;100.00
60874;BME280;46715;40.642;-7.920;2023-07-28T07:04:41;96310.91;;;16.48;100.00
60874;BME280;46715;40.642;-7.920;2023-07-28T07:06:42;96305.03;;;16.51;100.00
60874;BME280;46715;40.642;-7.920;2023-07-28T07:08:43;96304.94;;;16.65;99.78
60874;BME280;46715;40.642;-7.920;2023-07-28T07:10:50;96305.72;;;17.06;95.11
60874;BME280;46715;40.642;-7.920;2023-07-28T07:12:51;96305.88;;;17.45;93.55
60874;BME280;46715;40.642;-7.920;2023-07-28T07:14:52;96310.81;;;17.90;92.62
60874;BME280;46715;40.642;-7.920;2023-07-28T07:16:56;96315.06;;;18.86;89.05
60874;BME280;46715;40.642;-7.920;2023-07-28T07:18:57;96304.50;;;20.25;77.86
60874;BME280;46715;40.642;-7.920;2023-07-28T07:21:01;96305.13;;;21.45;70.74
60874;BME280;46715;40.642;-7.920;2023-07-28T07:23:06;96303.59;;;22.77;68.26
60874;BME280;46715;40.642;-7.920;2023-07-28T07:25:07;96296.28;;;23.84;60.01
60874;BME280;46715;40.642;-7.920;2023-07-28T07:27:09;96292.88;;;24.27;57.90
60874;BME280;46715;40.642;-7.920;2023-07-28T07:29:11;96291.09;;;24.34;56.89
60874;BME280;46715;40.642;-7.920;2023-07-28T07:31:15;96293.16;;;24.22;57.88
60874;BME280;46715;40.642;-7.920;2023-07-28T07:33:15;96296.38;;;24.31;57.55
60874;BME280;46715;40.642;-7.920;2023-07-28T07:35:16;96311.53;;;23.64;58.00
60874;BME280;46715;40.642;-7.920;2023-07-28T07:37:17;96306.97;;;23.45;59.28
60874;BME280;46715;40.642;-7.920;2023-07-28T07:39:18;96308.28;;;23.75;57.83
60874;BME280;46715;40.642;-7.920;2023-07-28T07:41:21;96304.53;;;25.18;54.22
60874;BME280;46715;40.642;-7.920;2023-07-28T07:43:22;96299.00;;;25.99;51.21
60874;BME280;46715;40.642;-7.920;2023-07-28T07:45:23;96303.28;;;25.09;53.45
60874;BME280;46715;40.642;-7.920;2023-07-28T07:47:23;96306.53;;;25.90;52.67
60874;BME280;46715;40.642;-7.920;2023-07-28T07:49:24;96302.41;;;27.48;47.74
60874;BME280;46715;40.642;-7.920;2023-07-28T07:51:25;96304.13;;;28.07;46.17
60874;BME280;46715;40.642;-7.920;2023-07-28T07:53:25;96296.88;;;28.80;45.29
60874;BME280;46715;40.642;-7.920;2023-07-28T07:55:26;96305.31;;;28.85;43.42
60874;BME280;46715;40.642;-7.920;2023-07-28T07:57:26;96295.31;;;28.86;43.50
60874;BME280;46715;40.642;-7.920;2023-07-28T07:59:28;96304.19;;;28.68;43.64
60874;BME280;46715;40.642;-7.920;2023-07-28T08:01:31;96291.81;;;29.11;42.32
60874;BME280;46715;40.642;-7.920;2023-07-28T08:03:31;96298.38;;;28.99;42.92
60874;BME280;46715;40.642;-7.920;2023-07-28T08:05:32;96297.19;;;30.10;40.23
60874;BME280;46715;40.642;-7.920;2023-07-28T08:07:34;96305.53;;;30.23;39.88
60874;BME280;46715;40.642;-7.920;2023-07-28T08:09:36;96305.66;;;30.01;39.53
60874;BME280;46715;40.642;-7.920;2023-07-28T08:11:37;96306.97;;;29.71;40.43
60874;BME280;46715;40.642;-7.920;2023-07-28T08:13:38;96304.94;;;29.97;40.13
60874;BME280;46715;40.642;-7.920;2023-07-28T08:15:38;96295.00;;;30.92;38.30
60874;BME280;46715;40.642;-7.920;2023-07-28T08:17:39;96297.75;;;31.23;37.36
60874;BME280;46715;40.642;-7.920;2023-07-28T08:19:40;96294.59;;;30.93;37.76
60874;BME280;46715;40.642;-7.920;2023-07-28T08:21:41;96298.00;;;31.36;38.19
60874;BME280;46715;40.642;-7.920;2023-07-28T08:23:42;96288.34;;;32.00;35.84
60874;BME280;46715;40.642;-7.920;2023-07-28T08:25:42;96291.69;;;31.81;35.61
60874;BME280;46715;40.642;-7.920;2023-07-28T08:27:43;96283.47;;;31.26;36.48
60874;BME280;46715;40.642;-7.920;2023-07-28T08:29:44;96282.41;;;31.51;36.58
60874;BME280;46715;40.642;-7.920;2023-07-28T08:31:44;96287.31;;;31.63;36.42
60874;BME280;46715;40.642;-7.920;2023-07-28T08:33:45;96290.94;;;31.45;37.03
60874;BME280;46715;40.642;-7.920;2023-07-28T08:35:45;96293.66;;;32.04;35.43
60874;BME280;46715;40.642;-7.920;2023-07-28T08:37:48;96286.75;;;32.03;35.44
60874;BME280;46715;40.642;-7.920;2023-07-28T08:39:49;96283.88;;;29.88;38.66
60874;BME280;46715;40.642;-7.920;2023-07-28T08:41:57;96281.41;;;29.38;39.37
60874;BME280;46715;40.642;-7.920;2023-07-28T08:43:58;96281.59;;;30.36;37.51
60874;BME280;46715;40.642;-7.920;2023-07-28T08:45:58;96296.28;;;31.18;37.79
60874;BME280;46715;40.642;-7.920;2023-07-28T08:47:59;96289.03;;;31.77;35.47
60874;BME280;46715;40.642;-7.920;2023-07-28T08:50:00;96287.19;;;31.70;36.28
60874;BME280;46715;40.642;-7.920;2023-07-28T08:52:02;96286.88;;;32.23;35.25
60874;BME280;46715;40.642;-7.920;2023-07-28T08:54:04;96291.69;;;32.59;34.49
60874;BME280;46715;40.642;-7.920;2023-07-28T08:56:05;96294.97;;;31.65;35.39
60874;BME280;46715;40.642;-7.920;2023-07-28T08:58:21;96292.69;;;32.45;34.45
60874;BME280;46715;40.642;-7.920;2023-07-28T09:00:23;96288.94;;;32.39;34.22
60874;BME280;46715;40.642;-7.920;2023-07-28T09:02:25;96298.75;;;31.98;35.54
60874;BME280;46715;40.642;-7.920;2023-07-28T09:04:26;96293.97;;;32.37;35.42
60874;BME280;46715;40.642;-7.920;2023-07-28T09:06:29;96287.16;;;32.01;35.18
60874;BME280;46715;40.642;-7.920;2023-07-28T09:08:32;96286.09;;;31.33;35.83
60874;BME280;46715;40.642;-7.920;2023-07-28T09:10:47;96290.19;;;31.45;36.39
60874;BME280;46715;40.642;-7.920;2023-07-28T09:12:52;96284.66;;;31.87;35.14
60874;BME280;46715;40.642;-7.920;2023-07-28T09:14:57;96286.00;;;32.29;35.37
60874;BME280;46715;40.642;-7.920;2023-07-28T09:17:11;96281.75;;;32.28;35.14
60874;BME280;46715;40.642;-7.920;2023-07-28T09:19:13;96288.56;;;32.60;34.83
60874;BME280;46715;40.642;-7.920;2023-07-28T09:21:18;96279.47;;;32.27;34.87
60874;BME280;46715;40.642;-7.920;2023-07-28T09:23:30;96282.75;;;32.38;34.85
60874;BME280;46715;40.642;-7.920;2023-07-28T09:25:31;96290.28;;;32.74;33.93
60874;BME280;46715;40.642;-7.920;2023-07-28T09:27:33;96297.19;;;32.99;34.26
60874;BME280;46715;40.642;-7.920;2023-07-28T09:29:34;96291.28;;;32.37;34.89
60874;BME280;46715;40.642;-7.920;2023-07-28T09:31:35;96296.47;;;32.95;34.41
60874;BME280;46715;40.642;-7.920;2023-07-28T09:33:37;96288.22;;;32.82;34.45
60874;BME280;46715;40.642;-7.920;2023-07-28T09:35:49;96295.44;;;32.41;34.97
60874;BME280;46715;40.642;-7.920;2023-07-28T09:37:50;96295.53;;;31.49;36.64
60874;BME280;46715;40.642;-7.920;2023-07-28T09:39:53;96294.47;;;31.73;35.81
60874;BME280;46715;40.642;-7.920;2023-07-28T09:41:54;96289.28;;;32.13;35.46
60874;BME280;46715;40.642;-7.920;2023-07-28T09:44:00;96288.19;;;33.06;34.00
60874;BME280;46715;40.642;-7.920;2023-07-28T09:46:08;96282.78;;;33.46;33.60
60874;BME280;46715;40.642;-7.920;2023-07-28T09:48:10;96287.03;;;32.83;34.22
60874;BME280;46715;40.642;-7.920;2023-07-28T09:50:15;96283.53;;;32.86;34.34
60874;BME280;46715;40.642;-7.920;2023-07-28T09:52:18;96281.69;;;33.23;33.67
60874;BME280;46715;40.642;-7.920;2023-07-28T09:54:23;96286.03;;;32.50;34.30
60874;BME280;46715;40.642;-7.920;2023-07-28T09:56:29;96285.00;;;31.61;35.08
60874;BME280;46715;40.642;-7.920;2023-07-28T09:58:33;96283.50;;;30.84;36.28
60874;BME280;46715;40.642;-7.920;2023-07-28T10:00:38;96289.66;;;31.26;35.52
60874;BME280;46715;40.642;-7.920;2023-07-28T10:02:39;96287.88;;;31.78;35.91
60874;BME280;46715;40.642;-7.920;2023-07-28T10:04:41;96281.28;;;31.48;35.14
60874;BME280;46715;40.642;-7.920;2023-07-28T10:06:44;96285.03;;;31.89;35.16
60874;BME280;46715;40.642;-7.920;2023-07-28T10:08:45;96283.50;;;32.15;35.06
60874;BME280;46715;40.642;-7.920;2023-07-28T10:10:46;96285.47;;;33.06;33.49
60874;BME280;46715;40.642;-7.920;2023-07-28T10:12:51;96285.66;;;33.15;32.69
60874;BME280;46715;40.642;-7.920;2023-07-28T10:15:02;96298.19;;;32.14;35.44
60874;BME280;46715;40.642;-7.920;2023-07-28T10:17:05;96281.94;;;33.09;33.92
60874;BME280;46715;40.642;-7.920;2023-07-28T10:19:06;96281.13;;;32.44;34.35
60874;BME280;46715;40.642;-7.920;2023-07-28T10:21:10;96281.94;;;33.49;33.19
60874;BME280;46715;40.642;-7.920;2023-07-28T10:23:21;96283.91;;;33.65;32.35
60874;BME280;46715;40.642;-7.920;2023-07-28T10:25:23;96277.19;;;32.49;34.25
60874;BME280;46715;40.642;-7.920;2023-07-28T10:27:30;96275.66;;;32.24;33.93
60874;BME280;46715;40.642;-7.920;2023-07-28T10:29:37;96270.03;;;32.62;33.60
60874;BME280;46715;40.642;-7.920;2023-07-28T10:31:52;96265.88;;;33.42;31.93
60874;BME280;46715;40.642;-7.920;2023-07-28T10:33:53;96272.34;;;33.28;32.62
60874;BME280;46715;40.642;-7.920;2023-07-28T10:35:54;96264.34;;;33.21;33.06